createdAt,value
2022-08-26T00:31:04.707Z,0
2022-08-26T00:31:45.574Z,0
2022-08-26T00:32:25.607Z,0
2022-08-26T00:37:10.955Z,0
2022-08-26T00:37:50.045Z,0
2022-08-26T00:38:30.490Z,0
2022-08-26T00:39:10.940Z,0
2022-08-26T00:39:51.493Z,0
2022-08-26T00:40:32.052Z,0
2022-08-26T00:41:12.471Z,0
2022-08-26T00:41:52.929Z,0
2022-08-26T00:42:33.430Z,0
2022-08-26T00:43:13.901Z,0
2022-08-26T00:50:39.287Z,0
2022-08-26T00:51:19.790Z,0
2022-08-26T00:52:00.249Z,0
2022-08-26T00:52:40.776Z,0
2022-08-26T00:53:21.188Z,0
2022-08-26T00:54:01.796Z,0
2022-08-26T00:54:42.446Z,0
2022-08-26T00:55:22.860Z,0
2022-08-26T00:56:03.299Z,0
2022-08-26T00:56:43.850Z,0
2022-08-26T00:57:24.260Z,0
2022-08-26T01:04:09.241Z,0
2022-08-26T01:04:49.769Z,0
2022-08-26T01:05:30.195Z,0
2022-08-26T01:06:12.673Z,0
2022-08-26T01:06:51.200Z,0
2022-08-26T01:07:31.850Z,0
2022-08-26T01:08:12.352Z,0
2022-08-26T01:08:52.910Z,0
2022-08-26T01:09:33.444Z,0
2022-08-26T01:10:14.000Z,0
2022-08-26T01:20:20.365Z,0
2022-08-26T01:21:01.207Z,0
2022-08-26T01:21:41.599Z,0
2022-08-26T01:24:23.522Z,0
2022-08-26T01:25:04.039Z,0
2022-08-26T01:25:44.554Z,0
2022-08-26T01:26:25.019Z,0
2022-08-26T01:27:05.486Z,0
2022-08-26T01:27:46.046Z,0
2022-08-26T01:28:26.556Z,0
2022-08-26T01:29:07.007Z,0
2022-08-26T01:29:47.552Z,0
2022-08-26T01:30:28.032Z,0
2022-08-26T01:37:53.357Z,0
2022-08-26T01:38:33.850Z,0
2022-08-26T01:39:14.356Z,0
2022-08-26T01:39:54.890Z,0
2022-08-26T01:40:35.278Z,0
2022-08-26T01:41:16.224Z,0
2022-08-26T01:41:56.324Z,0
2022-08-26T01:42:36.686Z,0
2022-08-26T01:43:17.189Z,0
2022-08-26T01:43:57.803Z,0
2022-08-26T01:44:38.136Z,0
2022-08-26T01:52:43.759Z,0
2022-08-26T01:53:24.244Z,0
2022-08-26T01:54:04.737Z,0
2022-08-26T01:54:46.157Z,0
2022-08-26T01:55:32.522Z,0
2022-08-26T01:56:06.161Z,0
2022-08-26T01:56:46.628Z,0
2022-08-26T01:57:27.095Z,0
2022-08-26T01:58:07.625Z,0
2022-08-26T02:06:13.430Z,0
2022-08-26T02:06:53.950Z,0
2022-08-26T02:07:34.412Z,0
2022-08-26T02:08:14.900Z,0
2022-08-26T02:08:55.375Z,0
2022-08-26T02:09:41.163Z,0
2022-08-26T02:10:16.413Z,0
2022-08-26T02:10:56.863Z,0
2022-08-26T02:11:37.340Z,0
2022-08-26T02:12:17.801Z,0
2022-08-26T02:12:58.317Z,0
2022-08-26T02:20:23.670Z,0
2022-08-26T02:21:04.139Z,0
2022-08-26T02:21:44.611Z,0
2022-08-26T02:22:25.095Z,0
2022-08-26T02:23:05.892Z,0
2022-08-26T02:23:46.219Z,0
2022-08-26T02:24:27.267Z,0
2022-08-26T02:25:07.225Z,0
2022-08-26T02:25:47.656Z,0
2022-08-26T02:26:28.123Z,0
2022-08-26T02:33:53.345Z,0
2022-08-26T02:34:33.807Z,0
2022-08-26T02:35:18.286Z,0
2022-08-26T02:35:54.812Z,0
2022-08-26T02:36:35.257Z,0
2022-08-26T02:37:15.722Z,0
2022-08-26T02:37:56.142Z,0
2022-08-26T02:38:36.605Z,0
2022-08-26T02:39:21.970Z,0
2022-08-26T02:39:57.696Z,0
2022-08-26T02:40:38.066Z,0
2022-08-26T02:46:46.963Z,0
2022-08-26T02:47:24.757Z,0
2022-08-26T02:48:04.340Z,0
2022-08-26T02:48:44.845Z,0
2022-08-26T02:50:05.736Z,0
2022-08-26T02:50:46.245Z,0
2022-08-26T02:51:26.715Z,0
2022-08-26T02:52:07.251Z,0
2022-08-26T02:52:47.769Z,0
2022-08-26T03:00:20.981Z,0
2022-08-26T03:01:01.487Z,0
2022-08-26T03:01:41.972Z,0
2022-08-26T03:06:25.308Z,0
2022-08-26T03:07:05.834Z,0
2022-08-26T03:07:46.323Z,0
2022-08-26T03:08:26.783Z,0
2022-08-26T03:09:07.242Z,0
2022-08-26T03:09:47.745Z,0
2022-08-26T03:10:28.248Z,0
2022-08-26T03:11:08.747Z,0
2022-08-26T03:11:49.205Z,0
2022-08-26T03:12:29.645Z,0
2022-08-26T03:20:35.421Z,0
2022-08-26T03:21:16.608Z,0
2022-08-26T03:22:36.750Z,0
2022-08-26T03:23:17.194Z,0
2022-08-26T03:23:58.606Z,0
2022-08-26T03:24:38.134Z,0
2022-08-26T03:25:18.608Z,0
2022-08-26T03:25:59.061Z,0
2022-08-26T03:26:39.549Z,0
2022-08-26T03:27:20.011Z,0
2022-08-26T03:36:38.848Z,0
2022-08-26T03:37:19.166Z,0
2022-08-26T03:37:59.664Z,0
2022-08-26T03:41:22.868Z,0
2022-08-26T03:42:03.334Z,0
2022-08-26T03:42:44.450Z,0
2022-08-26T03:43:24.313Z,0
2022-08-26T03:44:04.718Z,0
2022-08-26T03:44:45.189Z,0
2022-08-26T03:45:25.657Z,0
2022-08-26T03:46:06.210Z,0
2022-08-26T03:46:46.841Z,0
2022-08-26T03:47:27.089Z,0
2022-08-26T03:48:07.767Z,0
2022-08-26T03:55:32.890Z,0
2022-08-26T03:56:14.160Z,0
2022-08-26T03:56:54.646Z,0
2022-08-26T03:57:35.209Z,0
2022-08-26T03:58:15.698Z,0
2022-08-26T03:58:56.122Z,0
2022-08-26T03:59:36.605Z,0
2022-08-26T04:00:18.566Z,0
2022-08-26T04:00:57.524Z,0
2022-08-26T04:09:03.299Z,0
2022-08-26T04:10:26.467Z,0
2022-08-26T04:11:04.794Z,0
2022-08-26T04:11:45.260Z,0
2022-08-26T04:12:25.730Z,0
2022-08-26T04:13:06.328Z,0
2022-08-26T04:13:46.642Z,0
2022-08-26T04:14:27.091Z,0
2022-08-26T04:15:07.575Z,0
2022-08-26T04:23:13.256Z,0
2022-08-26T04:23:53.795Z,0
2022-08-26T04:24:34.258Z,0
2022-08-26T04:25:14.712Z,0
2022-08-26T04:25:55.297Z,0
2022-08-26T04:26:35.779Z,0
2022-08-26T04:27:16.321Z,0
2022-08-26T04:27:56.743Z,0
2022-08-26T04:28:37.206Z,0
2022-08-26T04:29:17.684Z,0
2022-08-26T04:36:43.037Z,0
2022-08-26T04:37:23.492Z,0
2022-08-26T04:38:04.148Z,0
2022-08-26T04:38:44.572Z,0
2022-08-26T04:39:25.220Z,0
2022-08-26T04:40:05.568Z,0
2022-08-26T04:40:46.625Z,0
2022-08-26T04:41:26.483Z,0
2022-08-26T04:42:06.948Z,0
2022-08-26T04:42:47.411Z,0
2022-08-26T04:49:35.296Z,0
2022-08-26T04:50:13.523Z,0
2022-08-26T04:50:54.063Z,0
2022-08-26T04:51:34.507Z,0
2022-08-26T04:52:15.744Z,0
2022-08-26T04:52:55.594Z,0
2022-08-26T04:53:36.066Z,0
2022-08-26T04:54:16.593Z,0
2022-08-26T04:54:57.315Z,0
2022-08-26T04:55:38.789Z,0
2022-08-26T05:03:03.318Z,0
2022-08-26T05:03:43.818Z,0
2022-08-26T05:04:24.446Z,0
2022-08-26T05:05:04.891Z,0
2022-08-26T05:05:45.337Z,0
2022-08-26T05:06:25.817Z,0
2022-08-26T05:07:06.310Z,0
2022-08-26T05:07:46.797Z,0
2022-08-26T05:08:27.254Z,0
2022-08-26T05:09:07.763Z,0
2022-08-26T05:16:33.245Z,0
2022-08-26T05:17:15.010Z,0
2022-08-26T05:17:55.254Z,0
2022-08-26T05:18:35.880Z,0
2022-08-26T05:19:17.274Z,0
2022-08-26T05:19:56.758Z,0
2022-08-26T05:20:37.228Z,0
2022-08-26T05:21:17.767Z,0
2022-08-26T05:28:02.970Z,0
2022-08-26T05:28:43.481Z,0
2022-08-26T05:29:23.965Z,0
2022-08-26T05:30:04.403Z,0
2022-08-26T05:30:44.872Z,0
2022-08-26T05:31:25.437Z,0
2022-08-26T05:32:05.822Z,0
2022-08-26T05:32:46.431Z,0
2022-08-26T05:33:26.914Z,0
2022-08-26T05:34:07.384Z,0
2022-08-26T05:34:47.823Z,0
2022-08-26T05:41:34.074Z,5
2022-08-26T05:42:13.134Z,5
2022-08-26T05:42:54.374Z,5
2022-08-26T05:43:34.948Z,5
2022-08-26T05:44:15.507Z,5
2022-08-26T05:44:56.616Z,5
2022-08-26T05:45:37.102Z,5
2022-08-26T05:46:17.709Z,5
2022-08-26T05:52:24.607Z,5
2022-08-26T05:53:04.172Z,5
2022-08-26T05:53:47.674Z,5
2022-08-26T06:32:08.668Z,10
2022-08-26T06:32:47.179Z,10
2022-08-26T06:33:27.666Z,10
2022-08-26T06:37:30.728Z,10
2022-08-26T06:38:11.210Z,10
2022-08-26T06:38:51.773Z,10
2022-08-26T06:39:32.377Z,10
2022-08-26T06:40:12.926Z,10
2022-08-26T06:40:53.460Z,10
2022-08-26T06:41:33.976Z,10
2022-08-26T06:42:14.485Z,10
2022-08-26T06:42:54.903Z,10
2022-08-26T06:49:00.623Z,10
2022-08-26T06:49:41.145Z,10
2022-08-26T06:50:22.602Z,10
2022-08-26T06:51:03.738Z,10
2022-08-26T06:51:44.126Z,10
2022-08-26T06:52:26.250Z,10
2022-08-26T06:55:20.815Z,10
2022-08-26T06:56:01.266Z,10
2022-08-26T06:56:41.761Z,10
2022-08-26T07:01:25.540Z,10
2022-08-26T07:02:06.145Z,10
2022-08-26T07:02:47.065Z,10
2022-08-26T07:03:27.237Z,10
2022-08-26T07:04:10.389Z,10
2022-08-26T07:04:48.285Z,10
2022-08-26T07:05:28.772Z,10
2022-08-26T07:06:09.348Z,10
2022-08-26T07:06:49.831Z,10
2022-08-26T07:13:35.515Z,10
2022-08-26T07:14:16.244Z,10
2022-08-26T07:14:57.482Z,10
2022-08-26T07:15:38.266Z,10
2022-08-26T07:16:18.816Z,10
2022-08-26T07:16:59.206Z,10
2022-08-26T07:17:39.738Z,10
2022-08-26T07:24:38.257Z,10
2022-08-26T07:25:19.224Z,10
2022-08-26T07:25:59.260Z,10
2022-08-26T07:28:41.735Z,10
2022-08-26T07:29:22.539Z,10
2022-08-26T07:30:03.139Z,10
2022-08-26T07:30:43.991Z,10
2022-08-26T07:31:24.724Z,10
2022-08-26T07:32:05.285Z,10
2022-08-26T07:32:45.808Z,10
2022-08-26T07:33:26.353Z,10
2022-08-26T07:40:45.655Z,10
2022-08-26T07:41:26.380Z,10
2022-08-26T07:42:07.341Z,10
2022-08-26T07:45:30.201Z,10
2022-08-26T07:48:46.971Z,10
2022-08-26T07:49:28.068Z,10
2022-08-26T07:50:07.962Z,10
2022-08-26T07:54:11.031Z,10
2022-08-26T07:54:51.689Z,10
2022-08-26T07:55:32.266Z,10
2022-08-26T07:56:12.777Z,10
2022-08-26T07:56:53.362Z,10
2022-08-26T07:57:33.808Z,10
2022-08-26T07:58:14.390Z,10
2022-08-26T07:58:54.892Z,10
2022-08-26T07:59:35.526Z,10
2022-08-26T08:04:10.791Z,10
2022-08-26T08:04:52.102Z,10
2022-08-26T08:05:33.888Z,10
2022-08-26T08:07:53.477Z,15
2022-08-26T08:08:31.994Z,15
2022-08-26T08:09:12.510Z,15
2022-08-26T08:12:35.987Z,10
2022-08-26T08:14:54.245Z,10
2022-08-26T08:15:34.816Z,10
2022-08-26T08:16:15.292Z,10
2022-08-26T08:21:57.794Z,10
2022-08-26T08:22:38.425Z,10
2022-08-26T08:23:19.480Z,10
2022-08-26T08:26:14.599Z,15
2022-08-26T08:29:51.443Z,10
2022-08-26T08:30:32.849Z,10
2022-08-26T08:31:13.366Z,10
2022-08-26T08:32:35.398Z,10
2022-08-26T08:33:16.145Z,10
2022-08-26T08:33:56.720Z,10
2022-08-26T08:34:37.612Z,10
2022-08-26T08:36:45.245Z,15
2022-08-26T08:37:26.361Z,15
2022-08-26T08:38:07.004Z,15
2022-08-26T08:38:47.530Z,15
2022-08-26T08:39:28.110Z,10
2022-08-26T08:40:08.850Z,10
2022-08-26T08:40:49.610Z,10
2022-08-26T08:41:30.270Z,10
2022-08-26T08:45:39.868Z,10
2022-08-26T08:46:16.307Z,10
2022-08-26T08:46:56.845Z,10
2022-08-26T08:47:37.338Z,10
2022-08-26T08:48:17.854Z,10
2022-08-26T08:48:58.379Z,10
2022-08-26T08:49:38.932Z,10
2022-08-26T08:50:19.499Z,10
2022-08-26T08:51:00.079Z,10
2022-08-26T08:55:01.684Z,10
2022-08-26T08:55:42.064Z,10
2022-08-26T08:56:22.637Z,10
2022-08-26T08:57:03.184Z,10
2022-08-26T09:00:30.185Z,10
2022-08-26T09:01:06.415Z,10
2022-08-26T09:01:47.527Z,10
2022-08-26T09:02:28.143Z,10
2022-08-26T09:03:08.543Z,10
2022-08-26T09:03:49.084Z,10
2022-08-26T09:04:29.600Z,10
2022-08-26T09:05:10.068Z,10
2022-08-26T09:05:50.550Z,10
2022-08-26T09:11:56.157Z,10
2022-08-26T09:12:36.717Z,10
2022-08-26T09:13:25.007Z,10
2022-08-26T09:13:57.773Z,10
2022-08-26T09:14:38.287Z,10
2022-08-26T09:15:18.812Z,10
2022-08-26T09:15:59.307Z,10
2022-08-26T09:16:39.870Z,10
2022-08-26T09:17:20.342Z,10
2022-08-26T09:25:46.189Z,10
2022-08-26T09:26:29.133Z,10
2022-08-26T09:27:06.570Z,10
2022-08-26T09:27:47.226Z,10
2022-08-26T09:28:28.986Z,10
2022-08-26T09:29:09.549Z,10
2022-08-26T09:29:50.230Z,10
2022-08-26T09:30:30.672Z,10
2022-08-26T09:31:11.714Z,10
2022-08-26T09:31:52.455Z,10
2022-08-26T09:32:33.315Z,10
2022-08-26T09:33:13.705Z,10
2022-08-26T09:38:43.492Z,10
2022-08-26T09:39:24.146Z,10
2022-08-26T09:43:22.083Z,10
2022-08-26T09:46:54.030Z,10
2022-08-26T09:47:34.588Z,10
2022-08-26T09:48:16.571Z,10
2022-08-26T09:48:55.639Z,15
2022-08-26T09:53:16.375Z,15
2022-08-26T09:53:56.917Z,15
2022-08-26T09:54:37.411Z,15
2022-08-26T09:59:21.238Z,10
2022-08-26T10:00:01.775Z,10
2022-08-26T10:00:42.454Z,10
2022-08-26T10:01:23.061Z,10
2022-08-26T10:02:03.832Z,10
2022-08-26T10:03:25.065Z,10
2022-08-26T10:04:05.698Z,10
2022-08-26T10:10:12.172Z,15
2022-08-26T10:10:53.019Z,15
2022-08-26T10:11:33.249Z,15
2022-08-26T10:12:13.820Z,15
2022-08-26T10:12:56.414Z,15
2022-08-26T10:14:22.636Z,15
2022-08-26T10:15:03.069Z,15
2022-08-26T10:15:48.657Z,15
2022-08-26T10:16:24.774Z,15
2022-08-26T10:17:05.463Z,15
2022-08-26T10:17:45.892Z,15
2022-08-26T10:23:11.445Z,15
2022-08-26T10:23:51.903Z,15
2022-08-26T10:24:32.433Z,15
2022-08-26T10:25:13.001Z,15
2022-08-26T10:25:53.542Z,15
2022-08-26T10:26:34.135Z,20
2022-08-26T10:27:14.581Z,20
2022-08-26T10:27:55.321Z,15
2022-08-26T10:32:41.463Z,15
2022-08-26T10:33:21.446Z,15
2022-08-26T10:34:01.986Z,15
2022-08-26T10:34:43.052Z,15
2022-08-26T10:35:24.217Z,15
2022-08-26T10:36:04.762Z,15
2022-08-26T10:36:58.609Z,15
2022-08-26T10:43:31.022Z,20
2022-08-26T10:44:11.587Z,25
2022-08-26T10:44:52.115Z,25
2022-08-26T10:45:32.644Z,25
2022-08-26T10:46:13.106Z,25
2022-08-26T10:46:53.528Z,20
2022-08-26T10:47:34.055Z,20
2022-08-26T10:48:14.523Z,20
2022-08-26T10:48:55.117Z,20
2022-08-26T10:49:35.596Z,20
2022-08-26T10:55:00.869Z,20
2022-08-26T10:55:41.353Z,15
2022-08-26T10:56:21.944Z,15
2022-08-26T10:57:02.441Z,15
2022-08-26T10:58:26.353Z,15
2022-08-26T10:59:03.979Z,15
2022-08-26T10:59:44.586Z,15
2022-08-26T11:00:25.130Z,15
2022-08-26T11:01:10.337Z,15
2022-08-26T11:06:31.137Z,10
2022-08-26T11:07:11.733Z,10
2022-08-26T11:07:52.208Z,10
2022-08-26T11:08:32.767Z,10
2022-08-26T11:09:13.219Z,10
2022-08-26T11:09:53.757Z,10
2022-08-26T11:10:34.343Z,10
2022-08-26T11:11:14.834Z,10
2022-08-26T11:11:55.381Z,10
2022-08-26T11:12:35.896Z,10
2022-08-26T11:18:54.068Z,10
2022-08-26T11:19:50.797Z,10
2022-08-26T11:20:15.029Z,10
2022-08-26T11:23:38.248Z,15
2022-08-26T11:24:18.846Z,15
2022-08-26T11:24:59.446Z,15
2022-08-26T11:25:41.122Z,15
2022-08-26T11:26:35.498Z,15
2022-08-26T11:33:07.868Z,20
2022-08-26T11:33:48.656Z,20
2022-08-26T11:34:31.497Z,20
2022-08-26T11:35:20.176Z,20
2022-08-26T11:36:11.558Z,20
2022-08-26T11:36:53.970Z,20
2022-08-26T11:38:28.143Z,20
2022-08-26T11:42:23.705Z,20
2022-08-26T11:43:04.981Z,20
2022-08-26T11:43:46.150Z,20
2022-08-26T11:44:27.081Z,20
2022-08-26T11:45:08.161Z,20
2022-08-26T11:45:49.313Z,15
2022-08-26T11:46:30.321Z,15
2022-08-26T11:47:11.809Z,15
2022-08-26T11:49:58.878Z,15
2022-08-26T11:50:40.899Z,15
2022-08-26T11:51:22.099Z,15
2022-08-26T11:54:09.275Z,15
2022-08-26T11:54:50.701Z,15
2022-08-26T12:41:26.157Z,15
2022-08-26T12:42:11.371Z,15
2022-08-26T12:42:56.418Z,15
2022-08-26T12:43:37.483Z,10
2022-08-26T12:44:20.595Z,10
2022-08-26T12:45:03.588Z,10
2022-08-26T12:50:00.215Z,10
2022-08-26T12:50:41.138Z,10
2022-08-26T12:51:22.165Z,10
2022-08-26T12:53:25.246Z,10
2022-08-26T12:57:47.992Z,15
2022-08-26T12:58:29.016Z,15
2022-08-26T12:59:12.306Z,15
2022-08-26T12:59:52.763Z,15
2022-08-26T13:00:33.674Z,15
2022-08-26T13:01:15.955Z,15
2022-08-26T13:01:57.053Z,15
2022-08-26T13:03:21.988Z,15
2022-08-26T13:04:03.348Z,15
2022-08-26T13:04:44.385Z,15
2022-08-26T13:05:25.502Z,15
2022-08-26T13:06:06.910Z,15
2022-08-26T13:09:32.653Z,15
2022-08-26T13:10:13.882Z,20
2022-08-26T13:10:54.901Z,20
2022-08-26T13:11:36.264Z,20
2022-08-26T13:14:24.270Z,20
2022-08-26T13:15:03.215Z,20
2022-08-26T13:15:44.721Z,20
2022-08-26T13:16:26.494Z,20
2022-08-26T13:19:12.594Z,15
2022-08-26T13:19:53.856Z,20
2022-08-26T13:20:34.824Z,20
2022-08-26T13:21:16.500Z,20
2022-08-26T13:24:42.411Z,15
2022-08-26T13:25:23.593Z,15
2022-08-26T13:26:04.882Z,15
2022-08-26T13:26:47.187Z,15
2022-08-26T13:29:32.300Z,20
2022-08-26T13:30:14.459Z,20
2022-08-26T13:34:07.664Z,20
2022-08-26T13:34:51.323Z,20
2022-08-26T13:35:31.262Z,20
2022-08-26T13:36:13.337Z,20
2022-08-26T13:38:48.409Z,20
2022-08-26T13:39:26.292Z,25
2022-08-26T13:40:07.510Z,25
2022-08-26T13:41:29.802Z,25
2022-08-26T13:42:10.453Z,25
2022-08-26T13:42:51.393Z,25
2022-08-26T13:43:32.433Z,25
2022-08-26T13:44:13.403Z,25
2022-08-26T13:48:21.599Z,20
2022-08-26T13:49:00.832Z,20
2022-08-26T13:49:42.104Z,20
2022-08-26T13:50:22.762Z,20
2022-08-26T13:51:03.846Z,20
2022-08-26T13:55:10.134Z,20
2022-08-26T13:55:51.090Z,20
2022-08-26T13:56:32.158Z,20
2022-08-26T13:57:13.241Z,20
2022-08-26T13:57:54.207Z,20
2022-08-26T14:05:32.285Z,15
2022-08-26T14:06:12.878Z,15
2022-08-26T14:06:53.374Z,20
2022-08-26T14:11:50.965Z,25
2022-08-26T14:12:18.158Z,25
2022-08-26T14:12:58.804Z,25
2022-08-26T14:13:39.649Z,30
2022-08-26T14:14:20.284Z,30
2022-08-26T14:15:00.725Z,30
2022-08-26T14:15:41.389Z,35
2022-08-26T14:16:22.099Z,35
2022-08-26T14:23:47.816Z,35
2022-08-26T14:24:28.311Z,35
2022-08-26T14:25:08.832Z,40
2022-08-26T14:25:49.422Z,40
2022-08-26T14:27:10.441Z,35
2022-08-26T14:27:50.930Z,35
2022-08-26T14:28:31.408Z,35
2022-08-26T14:29:13.479Z,35
2022-08-26T14:35:57.576Z,25
2022-08-26T14:36:38.603Z,25
2022-08-26T14:37:19.083Z,30
2022-08-26T14:38:00.707Z,30
2022-08-26T14:38:41.153Z,30
2022-08-26T14:39:21.965Z,30
2022-08-26T14:40:02.431Z,30
2022-08-26T14:45:27.932Z,25
2022-08-26T14:46:08.694Z,25
2022-08-26T14:46:49.070Z,30
2022-08-26T14:47:29.451Z,30
2022-08-26T14:48:10.141Z,30
2022-08-26T14:48:50.754Z,30
2022-08-26T14:49:31.252Z,30
2022-08-26T14:50:11.745Z,30
2022-08-26T14:50:52.286Z,25
2022-08-26T14:57:37.409Z,30
2022-08-26T14:58:17.905Z,25
2022-08-26T14:58:58.397Z,25
2022-08-26T14:59:38.969Z,25
2022-08-26T15:00:20.216Z,30
2022-08-26T15:01:00.878Z,30
2022-08-26T15:01:41.244Z,30
2022-08-26T15:04:14.110Z,25
2022-08-26T15:04:54.627Z,25
2022-08-26T15:08:57.621Z,20
2022-08-26T15:09:38.454Z,20
2022-08-26T15:10:18.957Z,20
2022-08-26T15:10:59.620Z,20
2022-08-26T15:11:40.922Z,20
2022-08-26T15:12:20.625Z,20
2022-08-26T15:13:02.100Z,15
2022-08-26T15:17:49.384Z,15
2022-08-26T15:18:29.141Z,15
2022-08-26T15:19:09.568Z,10
2022-08-26T15:19:50.149Z,10
2022-08-26T15:21:11.095Z,10
2022-08-26T15:21:51.618Z,10
2022-08-26T15:22:32.295Z,10
2022-08-26T15:29:55.558Z,10
2022-08-26T15:30:36.019Z,10
2022-08-26T15:31:16.573Z,10
2022-08-26T15:36:40.648Z,5
2022-08-26T15:37:21.126Z,5
2022-08-26T15:38:01.645Z,5
2022-08-26T15:38:42.072Z,5
2022-08-26T15:39:22.575Z,5
2022-08-26T15:40:03.195Z,5
2022-08-26T15:40:43.761Z,5
2022-08-26T15:46:50.348Z,10
2022-08-26T15:47:30.902Z,5
2022-08-26T15:48:11.522Z,5
2022-08-26T15:48:51.878Z,5
2022-08-26T15:49:32.429Z,5
2022-08-26T15:50:12.937Z,5
2022-08-26T15:50:53.433Z,5
2022-08-26T15:51:33.944Z,5
2022-08-26T15:52:14.810Z,5
2022-08-26T15:52:55.036Z,5
2022-08-26T16:00:20.631Z,5
2022-08-26T16:01:01.110Z,5
2022-08-26T16:01:41.668Z,5
2022-08-26T16:02:22.218Z,5
2022-08-26T16:03:02.657Z,5
2022-08-26T16:03:43.174Z,5
2022-08-26T16:04:23.788Z,5
2022-08-26T16:05:04.198Z,5
2022-08-26T16:05:44.800Z,5
2022-08-26T16:13:11.592Z,5
2022-08-26T16:13:50.859Z,5
2022-08-26T16:14:31.377Z,5
2022-08-26T16:15:11.873Z,5
2022-08-26T16:15:52.503Z,5
2022-08-26T16:16:33.001Z,5
2022-08-26T16:17:13.572Z,5
2022-08-26T16:17:55.063Z,5
2022-08-26T16:25:20.511Z,5
2022-08-26T16:26:01.147Z,5
2022-08-26T16:26:41.600Z,5
2022-08-26T16:28:02.630Z,5
2022-08-26T16:28:43.497Z,5
2022-08-26T16:29:23.641Z,5
2022-08-26T16:30:04.105Z,5
2022-08-26T16:30:44.715Z,5
2022-08-26T16:32:58.262Z,5
2022-08-26T16:33:38.026Z,5
2022-08-26T16:34:19.159Z,5
2022-08-26T16:35:40.648Z,5
2022-08-26T16:36:21.115Z,5
2022-08-26T16:37:01.626Z,5
2022-08-26T16:37:42.118Z,5
2022-08-26T16:38:22.653Z,5
2022-08-26T16:39:03.172Z,5
2022-08-26T16:39:45.027Z,5
2022-08-26T16:41:04.630Z,5
2022-08-26T16:46:32.097Z,0
2022-08-26T16:47:12.416Z,0
2022-08-26T16:47:53.016Z,0
2022-08-26T16:48:33.408Z,0
2022-08-26T16:49:13.915Z,0
2022-08-26T16:49:54.380Z,0
2022-08-26T16:57:20.362Z,0
2022-08-26T16:58:00.911Z,0
2022-08-26T16:58:41.400Z,0
2022-08-26T16:59:22.088Z,0
2022-08-26T17:00:02.524Z,0
2022-08-26T17:00:43.052Z,0
2022-08-26T17:01:23.601Z,0
2022-08-26T17:02:04.106Z,0
2022-08-26T17:02:44.524Z,0
2022-08-26T17:08:50.450Z,0
2022-08-26T17:09:30.652Z,0
2022-08-26T17:10:11.296Z,0
2022-08-26T17:12:52.760Z,0
2022-08-26T17:13:34.944Z,0
2022-08-26T17:14:13.727Z,0
2022-08-26T17:14:54.707Z,0
2022-08-26T17:15:35.302Z,0
2022-08-26T17:16:17.069Z,0
2022-08-26T17:16:58.548Z,0
2022-08-26T17:17:39.252Z,0
2022-08-26T17:23:43.209Z,0
2022-08-26T17:24:24.147Z,0
2022-08-26T17:25:04.588Z,0
2022-08-26T17:27:47.631Z,0
2022-08-26T17:28:28.163Z,0
2022-08-26T17:29:09.506Z,0
2022-08-26T17:29:49.746Z,0
2022-08-26T17:30:30.887Z,0
2022-08-26T17:31:10.890Z,0
2022-08-26T17:31:51.332Z,0
2022-08-26T17:32:31.874Z,0
2022-08-26T17:33:12.398Z,0
2022-08-26T17:39:18.339Z,0
2022-08-26T17:39:58.223Z,0
2022-08-26T17:40:38.725Z,0
2022-08-26T17:41:19.637Z,0
2022-08-26T17:42:00.239Z,0
2022-08-26T17:42:41.486Z,0
2022-08-26T17:43:21.807Z,0
2022-08-26T17:46:34.245Z,0
2022-08-26T17:47:14.484Z,0
2022-08-26T17:47:57.253Z,0
2022-08-26T17:48:41.148Z,0
2022-08-26T17:52:45.961Z,0
2022-08-26T17:53:28.673Z,0
2022-08-26T17:54:09.674Z,0
2022-08-26T18:35:12.357Z,0
2022-08-26T18:35:52.656Z,0
2022-08-26T18:36:33.147Z,0
2022-08-26T18:39:14.152Z,0
2022-08-26T18:39:56.398Z,0
2022-08-26T18:40:37.253Z,0
2022-08-26T18:41:18.599Z,0
2022-08-26T18:41:59.481Z,0
2022-08-26T18:42:39.819Z,0
2022-08-26T18:43:20.281Z,0
2022-08-26T18:44:41.301Z,0
2022-08-26T18:49:26.986Z,0
2022-08-26T18:50:07.959Z,0
2022-08-26T18:50:49.398Z,0
2022-08-26T18:51:29.355Z,0
2022-08-26T18:52:10.284Z,0
2022-08-26T18:52:50.603Z,0
2022-08-26T18:53:31.333Z,0
2022-08-26T18:54:11.829Z,0
2022-08-26T18:56:33.071Z,0
2022-08-26T18:57:26.047Z,0
2022-08-26T18:58:12.236Z,0
2022-08-26T18:58:52.529Z,0
2022-08-26T18:59:33.103Z,0
2022-08-26T19:00:13.573Z,0
2022-08-26T19:00:54.060Z,0
2022-08-26T19:01:34.621Z,0
2022-08-26T19:02:25.430Z,0
2022-08-26T19:03:03.012Z,0
2022-08-26T19:03:48.100Z,0
2022-08-26T19:07:53.789Z,0
2022-08-26T19:08:34.230Z,0
2022-08-26T19:09:14.806Z,0
2022-08-26T19:09:55.988Z,0
2022-08-26T19:10:36.120Z,0
2022-08-26T19:11:16.633Z,0
2022-08-26T19:11:57.559Z,0
2022-08-26T19:12:37.995Z,0
2022-08-26T19:18:43.022Z,0
2022-08-26T19:19:23.482Z,0
2022-08-26T19:20:03.958Z,0
2022-08-26T19:20:46.614Z,0
2022-08-26T19:21:25.020Z,0
2022-08-26T19:22:05.442Z,0
2022-08-26T19:22:46.042Z,0
2022-08-26T19:23:31.732Z,0
2022-08-26T19:24:08.028Z,0
2022-08-26T19:29:55.669Z,0
2022-08-26T19:30:36.256Z,0
2022-08-26T19:31:16.801Z,0
2022-08-26T19:33:59.238Z,0
2022-08-26T19:34:39.491Z,0
2022-08-26T19:35:19.937Z,0
2022-08-26T19:40:09.333Z,0
2022-08-26T19:40:50.403Z,0
2022-08-26T19:41:34.203Z,0
2022-08-26T19:42:11.703Z,0
2022-08-26T19:42:52.656Z,0
2022-08-26T19:43:33.026Z,0
2022-08-26T19:44:13.515Z,0
2022-08-26T19:50:19.330Z,0
2022-08-26T19:50:59.906Z,0
2022-08-26T19:51:40.629Z,0
2022-08-26T19:52:21.984Z,0
2022-08-26T19:53:02.564Z,0
2022-08-26T19:53:43.722Z,0
2022-08-26T19:54:24.499Z,0
2022-08-26T19:59:49.598Z,0
2022-08-26T20:00:30.199Z,0
2022-08-26T20:01:11.807Z,0
2022-08-26T20:01:52.978Z,0
2022-08-26T20:02:32.862Z,0
2022-08-26T20:03:15.881Z,0
2022-08-26T20:11:19.422Z,0
2022-08-26T20:11:59.921Z,0
2022-08-26T20:12:40.400Z,0
2022-08-26T20:13:20.934Z,0
2022-08-26T20:14:01.419Z,0
2022-08-26T20:14:41.964Z,0
2022-08-26T20:15:22.510Z,0
2022-08-26T20:16:03.003Z,0
2022-08-26T20:16:43.517Z,0
2022-08-26T20:17:24.101Z,0
2022-08-26T20:24:09.611Z,0
2022-08-26T20:24:50.092Z,0
2022-08-26T20:25:30.589Z,0
2022-08-26T20:26:11.171Z,0
2022-08-26T20:27:34.346Z,0
2022-08-26T20:28:12.511Z,0
2022-08-26T20:28:52.984Z,0
2022-08-26T20:29:33.546Z,0
2022-08-26T20:30:13.979Z,0
2022-08-26T20:35:39.645Z,0
2022-08-26T20:36:20.194Z,0
2022-08-26T20:37:01.020Z,0
2022-08-26T20:37:41.460Z,0
2022-08-26T20:38:22.017Z,0
2022-08-26T20:39:02.499Z,0
2022-08-26T20:39:43.122Z,0
2022-08-26T20:40:23.760Z,0
2022-08-26T20:41:04.396Z,0
2022-08-26T20:46:29.503Z,0
2022-08-26T20:47:09.997Z,0
2022-08-26T20:47:50.436Z,0
2022-08-26T20:48:30.948Z,0
2022-08-26T20:49:11.488Z,0
2022-08-26T20:49:52.872Z,0
2022-08-26T20:50:32.564Z,0
2022-08-26T20:51:13.040Z,0
2022-08-26T20:51:53.571Z,0
2022-08-26T20:52:34.050Z,0
2022-08-26T20:59:59.436Z,0
2022-08-26T21:00:39.988Z,0
2022-08-26T21:01:20.523Z,0
2022-08-26T21:02:00.910Z,0
2022-08-26T21:02:41.391Z,0
2022-08-26T21:03:21.950Z,0
2022-08-26T21:04:02.468Z,0
2022-08-26T21:04:43.035Z,0
2022-08-26T21:05:23.714Z,0
2022-08-26T21:06:04.235Z,0
2022-08-26T21:12:09.364Z,0
2022-08-26T21:12:49.833Z,0
2022-08-26T21:13:39.165Z,0
2022-08-26T21:14:15.843Z,0
2022-08-26T21:14:51.840Z,0
2022-08-26T21:15:32.324Z,0
2022-08-26T21:16:12.998Z,0
2022-08-26T21:16:53.578Z,0
2022-08-26T21:22:59.500Z,0
2022-08-26T21:23:40.028Z,0
2022-08-26T21:24:20.581Z,0
2022-08-26T21:25:01.067Z,0
2022-08-26T21:25:41.499Z,0
2022-08-26T21:26:22.188Z,0
2022-08-26T21:27:02.615Z,0
2022-08-26T21:27:43.100Z,0
2022-08-26T21:31:49.265Z,0
2022-08-26T21:32:29.736Z,0
2022-08-26T21:33:10.227Z,0
2022-08-26T21:33:50.767Z,0
2022-08-26T21:34:31.286Z,0
2022-08-26T21:35:11.783Z,0
2022-08-26T21:35:52.262Z,0
2022-08-26T21:36:32.796Z,0
2022-08-26T21:37:16.442Z,0
2022-08-26T21:37:53.742Z,0
2022-08-26T21:38:34.234Z,0
2022-08-26T21:45:59.757Z,0
2022-08-26T21:46:40.176Z,0
2022-08-26T21:47:20.618Z,0
2022-08-26T21:48:01.075Z,0
2022-08-26T21:48:41.564Z,0
2022-08-26T21:49:22.071Z,0
2022-08-26T21:50:02.563Z,0
2022-08-26T21:50:43.043Z,0
2022-08-26T21:51:23.586Z,0
2022-08-26T21:52:04.177Z,0
2022-08-26T21:54:49.719Z,0
2022-08-26T21:55:30.221Z,0
2022-08-26T21:56:10.732Z,0
2022-08-26T21:56:51.173Z,0
2022-08-26T21:57:31.640Z,0
2022-08-26T21:58:12.228Z,0
2022-08-26T21:58:52.705Z,0
2022-08-26T21:59:33.155Z,0
2022-08-26T22:00:13.767Z,0
2022-08-26T22:00:54.311Z,0
2022-08-26T22:07:39.322Z,0
2022-08-26T22:08:19.826Z,0
2022-08-26T22:09:00.369Z,0
2022-08-26T22:09:40.989Z,0
2022-08-26T22:10:21.480Z,0
2022-08-26T22:11:02.030Z,0
2022-08-26T22:11:42.749Z,0
2022-08-26T22:12:24.203Z,0
2022-08-26T22:19:09.233Z,0